createdAt,value
2017-11-06T00:01:36.334Z,13.18
2017-11-06T00:04:04.202Z,13.35
2017-11-06T00:06:32.070Z,14.68
2017-11-06T00:08:59.937Z,13.98
2017-11-06T00:11:27.803Z,14.50
2017-11-06T00:13:55.670Z,14.68
2017-11-06T00:16:23.539Z,16.70
2017-11-06T00:18:51.815Z,18.58
2017-11-06T00:21:19.682Z,16.95
2017-11-06T00:23:47.549Z,13.27
2017-11-06T00:26:15.423Z,14.52
2017-11-06T00:28:43.284Z,13.98
2017-11-06T00:31:11.151Z,13.30
2017-11-06T00:33:39.018Z,19.15
2017-11-06T00:36:06.814Z,18.37
2017-11-06T00:38:34.652Z,16.35
2017-11-06T00:41:02.518Z,16.73
2017-11-06T00:43:30.394Z,18.60
2017-11-06T00:45:58.256Z,21.65
2017-11-06T00:48:26.119Z,17.37
2017-11-06T00:50:53.988Z,14.30
2017-11-06T00:53:21.854Z,13.07
2017-11-06T00:55:49.722Z,14.00
2017-11-06T00:58:17.590Z,14.25
2017-11-06T01:00:45.457Z,13.77
2017-11-06T01:03:13.323Z,13.10
2017-11-06T01:05:41.191Z,12.73
2017-11-06T01:08:09.062Z,12.00
2017-11-06T01:10:36.928Z,13.02
2017-11-06T01:13:04.793Z,14.32
2017-11-06T01:15:32.663Z,13.23
2017-11-06T01:18:00.531Z,16.10
2017-11-06T01:20:28.497Z,12.95
2017-11-06T01:22:56.365Z,13.00
2017-11-06T01:25:24.232Z,14.50
2017-11-06T01:27:52.099Z,12.13
2017-11-06T01:30:19.968Z,10.65
2017-11-06T01:32:47.834Z,16.23
2017-11-06T01:35:15.702Z,13.30
2017-11-06T01:37:43.569Z,10.63
2017-11-06T01:40:11.436Z,15.57
2017-11-06T01:42:39.304Z,12.27
2017-11-06T01:45:07.171Z,15.05
2017-11-06T01:47:35.039Z,13.80
2017-11-06T01:50:02.906Z,11.25
2017-11-06T01:52:31.592Z,10.88
2017-11-06T01:54:59.459Z,16.30
2017-11-06T01:57:27.328Z,10.00
2017-11-06T01:59:55.198Z,11.63
2017-11-06T02:02:23.062Z,13.70
2017-11-06T02:04:50.931Z,14.70
2017-11-06T02:07:18.797Z,11.00
2017-11-06T02:09:46.663Z,10.95
2017-11-06T02:12:14.531Z,17.33
2017-11-06T02:14:42.398Z,16.62
2017-11-06T02:17:10.266Z,11.98
2017-11-06T02:19:38.133Z,13.20
2017-11-06T02:22:06.102Z,11.48
2017-11-06T02:24:33.969Z,15.60
2017-11-06T02:27:01.837Z,16.70
2017-11-06T02:29:29.705Z,17.17
2017-11-06T02:31:57.676Z,13.50
2017-11-06T02:34:25.542Z,11.40
2017-11-06T02:36:53.408Z,18.90
2017-11-06T02:39:21.276Z,15.40
2017-11-06T02:41:49.145Z,13.60
2017-11-06T02:44:17.011Z,14.00
2017-11-06T02:46:44.892Z,15.20
2017-11-06T02:49:12.766Z,13.00
2017-11-06T02:51:40.614Z,13.05
2017-11-06T02:54:08.488Z,16.90
2017-11-06T02:56:36.349Z,14.35
2017-11-06T02:59:04.225Z,13.35
2017-11-06T03:01:32.086Z,16.70
2017-11-06T03:03:59.951Z,16.48
2017-11-06T03:06:27.819Z,11.50
2017-11-06T03:08:55.684Z,11.52
2017-11-06T03:11:23.553Z,14.32
2017-11-06T03:13:51.419Z,15.70
2017-11-06T03:16:19.287Z,15.38
2017-11-06T03:18:47.153Z,15.80
2017-11-06T03:21:15.020Z,15.35
2017-11-06T03:23:42.889Z,12.07
2017-11-06T03:26:10.755Z,17.70
2017-11-06T03:28:38.623Z,15.35
2017-11-06T03:31:06.491Z,15.82
2017-11-06T03:33:34.361Z,19.70
2017-11-06T03:36:02.225Z,12.27
2017-11-06T03:38:30.105Z,13.70
2017-11-06T03:40:57.960Z,18.42
2017-11-06T03:43:25.832Z,12.77
2017-11-06T03:45:53.694Z,19.83
2017-11-06T03:48:21.561Z,14.68
2017-11-06T03:50:49.428Z,18.00
2017-11-06T03:53:17.295Z,14.85
2017-11-06T03:55:45.162Z,12.98
2017-11-06T03:58:13.031Z,18.40
2017-11-06T04:00:40.898Z,15.00
2017-11-06T04:03:08.764Z,18.42
2017-11-06T04:05:36.632Z,13.32
2017-11-06T04:08:04.500Z,16.42
2017-11-06T04:10:32.368Z,12.55
2017-11-06T04:13:00.234Z,15.27
2017-11-06T04:15:28.101Z,17.52
2017-11-06T04:17:55.970Z,11.15
2017-11-06T04:20:23.835Z,16.52
2017-11-06T04:22:51.704Z,14.32
2017-11-06T04:25:19.571Z,12.30
2017-11-06T04:27:47.438Z,13.68
2017-11-06T04:30:15.351Z,16.02
2017-11-06T04:32:43.992Z,11.93
2017-11-06T04:35:11.961Z,12.52
2017-11-06T04:37:39.829Z,9.73
2017-11-06T04:40:07.696Z,15.55
2017-11-06T04:42:35.564Z,14.23
2017-11-06T04:45:03.430Z,17.55
2017-11-06T04:47:31.297Z,13.90
2017-11-06T04:49:59.268Z,16.85
2017-11-06T04:52:27.134Z,20.40
2017-11-06T04:54:54.933Z,26.65
2017-11-06T04:57:23.586Z,19.60
2017-11-06T04:59:51.455Z,17.08
2017-11-06T05:02:19.321Z,14.15
2017-11-06T05:04:47.189Z,23.75
2017-11-06T05:07:15.055Z,16.90
2017-11-06T05:09:42.923Z,16.33
2017-11-06T05:12:10.793Z,16.65
2017-11-06T05:17:12.464Z,19.83
2017-11-06T05:19:40.741Z,18.77
2017-11-06T05:22:08.608Z,24.90
2017-11-06T05:24:36.475Z,25.00
2017-11-06T05:27:04.343Z,26.08
2017-11-06T05:29:32.210Z,38.95
2017-11-06T05:31:59.976Z,24.80
2017-11-06T05:34:27.851Z,30.35
2017-11-06T05:36:55.710Z,27.10
2017-11-06T05:39:23.577Z,22.37
2017-11-06T05:41:51.445Z,32.38
2017-11-06T05:44:19.203Z,31.12
2017-11-06T05:46:46.930Z,33.95
2017-11-06T05:49:14.654Z,17.95
2017-11-06T05:51:42.503Z,22.58
2017-11-06T05:54:10.371Z,25.80
2017-11-06T05:56:38.242Z,18.92
2017-11-06T05:59:06.106Z,16.42
2017-11-06T06:01:33.975Z,18.70
2017-11-06T06:04:01.840Z,21.87
2017-11-06T06:06:29.635Z,21.08
2017-11-06T06:08:58.296Z,22.65
2017-11-06T06:11:26.160Z,18.00
2017-11-06T06:13:54.026Z,19.60
2017-11-06T06:16:21.899Z,31.58
2017-11-06T06:18:49.764Z,19.70
2017-11-06T06:21:17.630Z,21.65
2017-11-06T06:23:45.709Z,32.80
2017-11-06T06:26:14.388Z,22.42
2017-11-06T06:28:42.257Z,25.70
2017-11-06T06:31:10.159Z,23.85
2017-11-06T06:33:38.193Z,25.08
2017-11-06T06:36:06.073Z,18.27
2017-11-06T06:38:33.928Z,19.27
2017-11-06T06:41:01.662Z,30.45
2017-11-06T06:43:29.562Z,17.15
2017-11-06T06:45:57.428Z,18.48
2017-11-06T06:48:25.294Z,23.77
2017-11-06T06:50:53.162Z,20.80
2017-11-06T06:53:21.031Z,23.02
2017-11-06T06:55:48.898Z,21.30
2017-11-06T06:58:16.766Z,23.73
2017-11-06T07:00:44.631Z,20.77
2017-11-06T07:03:12.498Z,21.33
2017-11-06T07:05:40.372Z,17.60
2017-11-06T07:08:08.234Z,15.10
2017-11-06T07:10:36.100Z,20.05
2017-11-06T07:13:03.967Z,20.65
2017-11-06T07:15:31.835Z,23.98
2017-11-06T07:17:59.702Z,21.70
2017-11-06T07:20:27.577Z,21.45
2017-11-06T07:22:55.437Z,18.73
2017-11-06T07:25:23.303Z,16.70
2017-11-06T07:27:51.172Z,17.37
2017-11-06T07:30:19.039Z,13.27
2017-11-06T07:32:46.907Z,16.48
2017-11-06T07:35:14.774Z,17.08
2017-11-06T07:37:42.641Z,18.60
2017-11-06T07:40:10.510Z,15.93
2017-11-06T07:42:38.378Z,14.18
2017-11-06T07:45:06.243Z,11.80
2017-11-06T07:47:34.110Z,13.02
2017-11-06T07:50:01.978Z,14.68
2017-11-06T07:52:29.845Z,13.20
2017-11-06T07:54:57.712Z,15.02
2017-11-06T07:57:25.582Z,17.02
2017-11-06T07:59:53.447Z,19.20
2017-11-06T08:02:21.314Z,21.87
2017-11-06T08:04:49.181Z,23.98
2017-11-06T08:07:17.050Z,18.98
2017-11-06T08:09:44.917Z,17.48
2017-11-06T08:12:12.783Z,22.80
2017-11-06T08:14:40.653Z,22.42
2017-11-06T08:17:08.520Z,27.92
2017-11-06T08:19:36.489Z,20.55
2017-11-06T08:22:04.378Z,23.25
2017-11-06T08:24:32.939Z,16.40
2017-11-06T08:27:00.670Z,13.93
2017-11-06T08:29:28.471Z,24.98
2017-11-06T08:31:56.340Z,18.95
2017-11-06T08:34:24.207Z,19.85
2017-11-06T08:36:52.070Z,17.87
2017-11-06T08:39:19.940Z,18.30
2017-11-06T08:41:47.807Z,19.08
2017-11-06T08:44:15.673Z,20.00
2017-11-06T08:46:43.541Z,18.85
2017-11-06T08:49:11.407Z,17.73
2017-11-06T08:51:39.277Z,18.02
2017-11-06T08:54:07.008Z,12.27
2017-11-06T08:56:34.907Z,14.15
2017-11-06T08:59:02.776Z,13.82
2017-11-06T09:01:30.641Z,13.07
2017-11-06T09:03:58.509Z,12.65
2017-11-06T09:06:26.383Z,14.30
2017-11-06T09:08:54.244Z,14.27
2017-11-06T09:11:22.111Z,11.48
2017-11-06T09:13:49.978Z,13.15
2017-11-06T09:16:17.845Z,14.38
2017-11-06T09:18:45.713Z,13.10
2017-11-06T09:21:13.581Z,11.23
2017-11-06T09:23:41.455Z,14.82
2017-11-06T09:26:09.324Z,12.25
2017-11-06T09:28:37.186Z,10.75
2017-11-06T09:31:05.052Z,13.32
2017-11-06T09:33:32.917Z,13.38
2017-11-06T09:36:00.784Z,11.88
2017-11-06T09:38:28.656Z,14.73
2017-11-06T09:40:56.521Z,14.57
2017-11-06T09:43:24.390Z,10.70
2017-11-06T09:45:52.767Z,10.80
2017-11-06T09:48:20.633Z,12.10
2017-11-06T09:50:48.500Z,10.52
2017-11-06T09:53:16.367Z,12.57
2017-11-06T09:55:44.235Z,11.00
2017-11-06T09:58:12.107Z,11.65
2017-11-06T10:00:39.969Z,10.57
2017-11-06T10:03:07.837Z,13.27
2017-11-06T10:05:36.318Z,10.23
2017-11-06T10:08:04.185Z,11.45
2017-11-06T10:10:32.053Z,12.20
2017-11-06T10:12:59.923Z,12.55
2017-11-06T10:15:27.787Z,13.30
2017-11-06T10:17:55.553Z,11.15
2017-11-06T10:20:23.419Z,10.40
2017-11-06T10:22:51.291Z,10.73
2017-11-06T10:25:19.154Z,10.52
2017-11-06T10:27:47.022Z,12.65
2017-11-06T10:30:14.889Z,12.27
2017-11-06T10:32:42.756Z,12.85
2017-11-06T10:35:10.624Z,9.82
2017-11-06T10:37:38.399Z,10.20
2017-11-06T10:40:06.163Z,14.80
2017-11-06T10:42:33.878Z,12.57
2017-11-06T10:45:01.653Z,15.20
2017-11-06T10:47:29.382Z,11.38
2017-11-06T10:49:57.881Z,8.20
2017-11-06T10:52:25.647Z,8.73
2017-11-06T10:54:53.563Z,10.93
2017-11-06T10:57:21.429Z,10.13
2017-11-06T10:59:49.297Z,12.25
2017-11-06T11:02:17.164Z,11.23
2017-11-06T11:04:44.933Z,9.10
2017-11-06T11:07:12.692Z,11.55
2017-11-06T11:09:41.381Z,10.50
2017-11-06T11:12:09.247Z,8.10
2017-11-06T11:14:37.115Z,12.02
2017-11-06T11:17:04.910Z,9.07
2017-11-06T11:19:32.748Z,11.73
2017-11-06T11:22:00.486Z,10.07
2017-11-06T11:24:28.244Z,10.68
2017-11-06T11:26:55.989Z,12.25
2017-11-06T11:29:24.625Z,10.75
2017-11-06T11:31:52.493Z,9.27
2017-11-06T11:34:20.234Z,10.55
2017-11-06T11:36:48.125Z,9.60
2017-11-06T11:39:15.994Z,14.07
2017-11-06T11:41:43.859Z,14.90
2017-11-06T11:44:12.445Z,10.38
2017-11-06T11:46:40.311Z,13.05
2017-11-06T11:49:08.178Z,15.50
2017-11-06T11:51:36.046Z,9.85
2017-11-06T11:54:03.914Z,15.20
2017-11-06T11:56:31.634Z,13.10
2017-11-06T11:58:59.357Z,15.90
2017-11-06T12:01:27.209Z,15.40
2017-11-06T12:03:54.973Z,15.32
2017-11-06T12:06:22.771Z,16.20
2017-11-06T12:08:51.259Z,14.40
2017-11-06T12:11:19.837Z,29.95
2017-11-06T12:13:48.490Z,18.75
2017-11-06T12:16:16.358Z,16.55
2017-11-06T12:18:44.225Z,13.13
2017-11-06T12:21:12.093Z,14.45
2017-11-06T12:23:39.960Z,14.00
2017-11-06T12:26:07.681Z,17.27
2017-11-06T12:28:35.433Z,15.68
2017-11-06T12:31:03.929Z,16.95
2017-11-06T12:33:31.650Z,14.00
2017-11-06T12:35:59.509Z,15.25
2017-11-06T12:38:27.368Z,15.75
2017-11-06T12:40:55.236Z,14.57
2017-11-06T12:43:22.950Z,14.90
2017-11-06T12:45:50.778Z,17.25
2017-11-06T12:48:18.494Z,17.95
2017-11-06T12:50:46.224Z,13.73
2017-11-06T12:53:14.721Z,13.10
2017-11-06T12:55:43.225Z,15.20
2017-11-06T12:58:10.946Z,15.40
2017-11-06T13:00:38.793Z,12.52
2017-11-06T13:03:06.656Z,13.85
2017-11-06T13:05:34.524Z,14.60
2017-11-06T13:08:02.390Z,15.05
2017-11-06T13:10:30.258Z,16.80
2017-11-06T13:12:58.126Z,12.05
2017-11-06T13:15:25.992Z,17.42
2017-11-06T13:17:53.859Z,13.45
2017-11-06T13:20:21.728Z,16.48
2017-11-06T13:22:49.598Z,17.73
2017-11-06T13:25:17.461Z,14.18
2017-11-06T13:27:45.174Z,12.98
2017-11-06T13:30:13.657Z,12.05
2017-11-06T13:32:42.293Z,10.30
2017-11-06T13:35:10.162Z,11.10
2017-11-06T13:37:38.027Z,15.52
2017-11-06T13:40:05.811Z,13.62
2017-11-06T13:42:33.665Z,16.08
2017-11-06T13:45:01.402Z,18.77
2017-11-06T13:47:29.118Z,12.70
2017-11-06T13:49:56.842Z,11.52
2017-11-06T13:52:24.578Z,15.30
2017-11-06T13:54:52.382Z,16.33
2017-11-06T13:57:20.249Z,10.60
2017-11-06T13:59:48.116Z,11.23
2017-11-06T14:02:15.982Z,15.90
2017-11-06T14:04:43.851Z,11.43
2017-11-06T14:07:11.718Z,15.38
2017-11-06T14:09:39.687Z,14.27
2017-11-06T14:12:07.556Z,11.30
2017-11-06T14:14:35.421Z,13.20
2017-11-06T14:17:03.291Z,13.20
2017-11-06T14:19:31.014Z,12.68
2017-11-06T14:21:58.820Z,14.35
2017-11-06T14:24:27.506Z,20.10
2017-11-06T14:26:55.373Z,11.82
2017-11-06T14:29:23.241Z,16.87
2017-11-06T14:31:51.108Z,8.88
2017-11-06T14:34:18.831Z,8.65
2017-11-06T14:36:46.640Z,10.77
2017-11-06T14:39:14.505Z,16.12
2017-11-06T14:41:42.219Z,11.05
2017-11-06T14:44:09.932Z,13.77
2017-11-06T14:46:37.807Z,8.15
2017-11-06T14:49:05.668Z,19.17
2017-11-06T14:51:33.534Z,12.55
2017-11-06T14:54:01.402Z,10.82
2017-11-06T14:56:29.275Z,10.60
2017-11-06T14:58:57.137Z,12.32
2017-11-06T15:01:25.007Z,12.00
2017-11-06T15:03:52.873Z,9.65
2017-11-06T15:06:20.740Z,10.38
2017-11-06T15:08:48.608Z,9.15
2017-11-06T15:11:16.474Z,8.57
2017-11-06T15:13:44.341Z,17.87
2017-11-06T15:16:12.209Z,12.45
2017-11-06T15:18:40.075Z,7.55
2017-11-06T15:21:07.942Z,11.35
2017-11-06T15:23:35.838Z,11.25
2017-11-06T15:26:03.677Z,14.10
2017-11-06T15:28:31.544Z,10.95
2017-11-06T15:30:59.416Z,14.30
2017-11-06T15:33:27.278Z,13.07
2017-11-06T15:35:55.146Z,11.32
2017-11-06T15:38:23.435Z,10.70
2017-11-06T15:40:51.291Z,13.52
2017-11-06T15:43:19.157Z,13.32
2017-11-06T15:45:47.026Z,12.07
2017-11-06T15:48:14.892Z,17.67
2017-11-06T15:50:42.760Z,13.25
2017-11-06T15:53:10.627Z,8.43
2017-11-06T15:55:38.494Z,8.30
2017-11-06T15:58:06.362Z,10.70
2017-11-06T16:00:34.231Z,13.23
2017-11-06T16:03:02.095Z,10.70
2017-11-06T16:05:29.964Z,11.30
2017-11-06T16:07:57.838Z,7.35
2017-11-06T16:10:32.648Z,7.10
2017-11-06T16:13:04.550Z,9.63
2017-11-06T16:15:37.265Z,6.00
2017-11-06T16:28:55.331Z,11.02
2017-11-06T16:31:23.500Z,6.22
2017-11-06T16:33:52.386Z,8.40
2017-11-06T16:36:20.455Z,7.05
2017-11-06T16:38:48.426Z,9.98
2017-11-06T16:41:17.214Z,10.50
2017-11-06T16:43:45.082Z,6.62
2017-11-06T16:46:12.950Z,9.65
2017-11-06T16:48:40.816Z,7.18
2017-11-06T16:51:08.684Z,10.40
2017-11-06T16:53:36.552Z,7.57
2017-11-06T16:56:04.829Z,6.95
2017-11-06T16:58:32.539Z,10.60
2017-11-06T17:01:01.058Z,12.98
2017-11-06T17:03:29.149Z,12.52
2017-11-06T17:05:57.935Z,5.57
2017-11-06T17:08:25.905Z,5.87
2017-11-06T17:10:53.850Z,9.23
2017-11-06T17:13:21.550Z,9.05
2017-11-06T17:15:49.405Z,6.68
2017-11-06T17:18:17.273Z,9.40
2017-11-06T17:20:46.063Z,7.55
2017-11-06T17:23:13.928Z,10.27
2017-11-06T17:25:42.102Z,13.82
2017-11-06T17:28:09.971Z,5.68
2017-11-06T17:30:37.837Z,8.55
2017-11-06T17:33:05.704Z,6.80
2017-11-06T17:35:33.574Z,8.93
2017-11-06T17:38:01.441Z,6.95
2017-11-06T17:40:29.264Z,7.37
2017-11-06T17:42:57.174Z,5.43
2017-11-06T17:45:25.043Z,7.72
2017-11-06T17:47:52.909Z,7.65
2017-11-06T17:50:20.776Z,7.35
2017-11-06T17:52:48.746Z,7.40
2017-11-06T17:55:16.612Z,5.30
2017-11-06T17:57:44.480Z,6.40
2017-11-06T18:00:12.351Z,7.30
2017-11-06T18:02:40.215Z,5.97
2017-11-06T18:05:08.084Z,10.15
2017-11-06T18:07:35.949Z,5.15
2017-11-06T18:10:03.817Z,6.37
2017-11-06T18:12:31.685Z,7.70
2017-11-06T18:14:59.562Z,7.18
2017-11-06T18:17:27.421Z,6.95
2017-11-06T18:19:55.288Z,5.15
2017-11-06T18:22:23.153Z,7.05
2017-11-06T18:24:51.020Z,6.85
2017-11-06T18:27:18.887Z,6.78
2017-11-06T18:29:46.755Z,8.10
2017-11-06T18:32:14.622Z,9.05
2017-11-06T18:34:42.489Z,11.93
2017-11-06T18:37:10.358Z,6.32
2017-11-06T18:39:38.225Z,6.80
2017-11-06T18:42:06.096Z,10.05
2017-11-06T18:44:33.961Z,8.95
2017-11-06T18:47:01.827Z,7.10
2017-11-06T18:49:29.696Z,9.00
2017-11-06T18:51:57.565Z,11.07
2017-11-06T18:54:25.429Z,8.57
2017-11-06T18:56:54.012Z,9.23
2017-11-06T18:59:21.878Z,6.15
2017-11-06T19:01:49.748Z,8.10
2017-11-06T19:04:17.615Z,8.20
2017-11-06T19:06:45.481Z,12.93
2017-11-06T19:09:16.102Z,5.78
2017-11-06T19:11:47.019Z,6.35
2017-11-06T19:14:17.510Z,7.50
2017-11-06T19:16:46.270Z,8.07
2017-11-06T19:19:14.136Z,5.90
2017-11-06T19:21:42.007Z,7.03
2017-11-06T19:24:09.871Z,7.07
2017-11-06T19:26:37.743Z,8.00
2017-11-06T19:29:05.615Z,8.70
2017-11-06T19:31:33.488Z,4.15
2017-11-06T19:34:01.343Z,6.20
2017-11-06T19:36:29.151Z,7.20
2017-11-06T19:38:57.796Z,9.40
2017-11-06T19:41:25.664Z,9.10
2017-11-06T19:43:53.426Z,6.70
2017-11-06T19:46:21.295Z,5.18
2017-11-06T19:48:49.161Z,6.53
2017-11-06T19:51:17.027Z,9.65
2017-11-06T19:53:44.895Z,7.05
2017-11-06T19:56:12.762Z,6.18
2017-11-06T19:58:40.629Z,6.35
2017-11-06T20:01:08.496Z,6.68
2017-11-06T20:03:36.363Z,5.65
2017-11-06T20:06:04.126Z,4.80
2017-11-06T20:08:31.996Z,7.07
2017-11-06T20:10:59.863Z,6.97
2017-11-06T20:13:27.730Z,7.10
2017-11-06T20:15:55.598Z,8.50
2017-11-06T20:18:23.468Z,5.12
2017-11-06T20:20:51.353Z,5.57
2017-11-06T20:23:20.019Z,7.32
2017-11-06T20:25:47.885Z,6.18
2017-11-06T20:28:15.757Z,5.37
2017-11-06T20:30:43.620Z,9.30
2017-11-06T20:33:11.488Z,4.78
2017-11-06T20:35:39.457Z,5.40
2017-11-06T20:38:07.324Z,7.68
2017-11-06T20:40:35.295Z,7.22
2017-11-06T20:43:03.161Z,6.75
2017-11-06T20:45:31.029Z,9.88
2017-11-06T20:47:58.898Z,6.32
2017-11-06T20:50:26.773Z,6.45
2017-11-06T20:52:54.572Z,5.75
2017-11-06T20:55:23.225Z,7.78
2017-11-06T20:57:51.082Z,5.05
2017-11-06T21:00:18.951Z,8.95
2017-11-06T21:02:46.817Z,5.37
2017-11-06T21:05:14.684Z,7.07
2017-11-06T21:07:42.552Z,10.32
2017-11-06T21:10:10.418Z,5.72
2017-11-06T21:12:38.285Z,7.18
2017-11-06T21:15:06.160Z,6.37
2017-11-06T21:17:34.846Z,11.70
2017-11-06T21:20:02.712Z,19.55
2017-11-06T21:22:30.574Z,22.85
2017-11-06T21:24:58.441Z,17.75
2017-11-06T21:27:26.314Z,18.12
2017-11-06T21:29:59.707Z,9.65
2017-11-06T21:32:27.472Z,8.10
2017-11-06T21:34:55.339Z,6.93
2017-11-06T21:37:23.307Z,7.12
2017-11-06T21:39:51.184Z,5.82
2017-11-06T21:42:19.247Z,7.82
2017-11-06T21:44:47.054Z,7.53
2017-11-06T21:47:14.982Z,6.70
2017-11-06T21:49:42.849Z,6.30
2017-11-06T21:52:10.716Z,6.87
2017-11-06T21:54:38.583Z,7.03
2017-11-06T21:57:06.451Z,7.70
2017-11-06T21:59:34.318Z,9.65
2017-11-06T22:02:02.186Z,5.72
2017-11-06T22:04:30.159Z,10.13
2017-11-06T22:06:58.022Z,5.82
2017-11-06T22:09:25.891Z,11.25
2017-11-06T22:11:53.758Z,7.95
2017-11-06T22:14:21.625Z,11.73
2017-11-06T22:16:49.491Z,7.05
2017-11-06T22:19:17.359Z,5.60
2017-11-06T22:21:45.226Z,8.18
2017-11-06T22:24:13.095Z,10.30
2017-11-06T22:26:40.961Z,9.60
2017-11-06T22:29:08.829Z,8.50
2017-11-06T22:31:36.624Z,7.07
2017-11-06T22:34:05.179Z,8.98
2017-11-06T22:36:33.045Z,8.70
2017-11-06T22:39:00.938Z,7.60
2017-11-06T22:41:29.600Z,11.05
2017-11-06T22:43:57.466Z,12.80
2017-11-06T22:46:25.435Z,10.40
2017-11-06T22:48:53.302Z,10.32
2017-11-06T22:51:21.178Z,12.77
2017-11-06T22:53:49.044Z,16.10
2017-11-06T22:56:16.908Z,11.80
2017-11-06T22:58:44.774Z,12.52
2017-11-06T23:01:12.641Z,17.83
2017-11-06T23:03:40.511Z,13.30
2017-11-06T23:06:08.480Z,13.95
2017-11-06T23:08:36.366Z,15.00
2017-11-06T23:11:04.213Z,14.40
2017-11-06T23:13:32.079Z,22.73
2017-11-06T23:15:59.946Z,13.07
2017-11-06T23:18:28.770Z,11.60
2017-11-06T23:20:57.319Z,11.00
2017-11-06T23:23:25.187Z,12.02
2017-11-06T23:25:53.054Z,16.83
2017-11-06T23:28:20.963Z,14.32
2017-11-06T23:30:52.372Z,13.25
2017-11-06T23:33:25.330Z,9.00
2017-11-06T23:35:53.228Z,10.57
2017-11-06T23:38:21.197Z,11.40
2017-11-06T23:40:49.063Z,9.80
2017-11-06T23:43:16.932Z,11.50
2017-11-06T23:45:44.798Z,11.30
2017-11-06T23:48:12.666Z,10.10
2017-11-06T23:50:40.533Z,8.80
2017-11-06T23:53:08.401Z,8.80
2017-11-06T23:55:36.268Z,14.63
2017-11-06T23:58:04.136Z,9.45
